Pagrindinis puslapis
METAR-TAF:

METAR-TAF

Oro uostai :

Tena, Ekvadoras

platuma: 01-03-35S, ilguma: 77-35-00W, Aukštis: 376 m

Dabartinis oras

Ataskaita buvo paskelbta 44 minutes, ne 02:00 UTC
Vėjas 3 kt iš Vakarų
Temperatūra 21°C
Drėgmė 100%
Slėgis 1015 hPa
Matomumas 10 km arba daugiau
Mažai debesys ne aukštis 2000 ft

METAR: SEJD 170200Z 27003KT 9999 FEW020 21/21 Q1015 RMK A2999

Laikas: 21:44 (02:44 UTC)


TAF: trūkstamas

Orai ataskaitas ir orų prognozės (METAR, TAF).

turimą stotys yra geltonos ir raudonos taškus žemėlapyje.

Perkelti pele per norėdami pamatyti stoties vardą.

Tada spustelėkite, norėdami matyti oro stebėjimo ir prognozės.

Norėdami pakeisti žemėlapį: spustelėkite ant žalios mygtukų su juodo kryžiaus žemyn,; žalią mygtuką su brūkšneliu, jei norite nutolinti; arba žalių rodyklių gretimoms žemėlapius.


METAR-TAF: